sensor_id;sensor_type;location;lat;lon;timestamp;P1;durP1;ratioP1;P2;durP2;ratioP2
7843;SDS011;3967;48.702;9.326;2024-03-17T00:01:10;5.23;;;4.07;;
7843;SDS011;3967;48.702;9.326;2024-03-17T00:03:36;8.90;;;4.43;;
7843;SDS011;3967;48.702;9.326;2024-03-17T00:06:02;5.37;;;4.07;;
7843;SDS011;3967;48.702;9.326;2024-03-17T00:08:28;4.77;;;4.37;;
7843;SDS011;3967;48.702;9.326;2024-03-17T00:10:54;5.07;;;4.00;;
7843;SDS011;3967;48.702;9.326;2024-03-17T00:13:23;5.47;;;4.53;;
7843;SDS011;3967;48.702;9.326;2024-03-17T00:15:49;6.63;;;4.90;;
7843;SDS011;3967;48.702;9.326;2024-03-17T00:18:16;5.33;;;4.63;;
7843;SDS011;3967;48.702;9.326;2024-03-17T00:20:42;5.27;;;4.60;;
7843;SDS011;3967;48.702;9.326;2024-03-17T00:23:08;9.23;;;6.00;;
7843;SDS011;3967;48.702;9.326;2024-03-17T00:25:37;6.33;;;5.27;;
7843;SDS011;3967;48.702;9.326;2024-03-17T00:28:04;9.57;;;4.73;;
7843;SDS011;3967;48.702;9.326;2024-03-17T00:30:30;5.20;;;4.70;;
7843;SDS011;3967;48.702;9.326;2024-03-17T00:32:56;5.80;;;5.20;;
7843;SDS011;3967;48.702;9.326;2024-03-17T00:35:26;6.87;;;5.17;;
7843;SDS011;3967;48.702;9.326;2024-03-17T00:37:52;5.87;;;4.93;;
7843;SDS011;3967;48.702;9.326;2024-03-17T00:40:18;7.60;;;5.17;;
7843;SDS011;3967;48.702;9.326;2024-03-17T00:42:45;5.30;;;4.80;;
7843;SDS011;3967;48.702;9.326;2024-03-17T00:45:11;5.43;;;4.93;;
7843;SDS011;3967;48.702;9.326;2024-03-17T00:47:37;6.70;;;5.00;;
7843;SDS011;3967;48.702;9.326;2024-03-17T00:50:04;5.37;;;4.87;;
7843;SDS011;3967;48.702;9.326;2024-03-17T00:52:32;6.97;;;5.13;;
7843;SDS011;3967;48.702;9.326;2024-03-17T00:54:58;7.23;;;5.17;;
7843;SDS011;3967;48.702;9.326;2024-03-17T00:57:24;4.93;;;4.43;;
7843;SDS011;3967;48.702;9.326;2024-03-17T00:59:50;6.40;;;4.67;;
7843;SDS011;3967;48.702;9.326;2024-03-17T01:02:17;5.80;;;5.27;;
7843;SDS011;3967;48.702;9.326;2024-03-17T01:04:44;7.43;;;5.73;;
7843;SDS011;3967;48.702;9.326;2024-03-17T01:07:10;5.90;;;5.00;;
7843;SDS011;3967;48.702;9.326;2024-03-17T01:09:37;6.23;;;5.63;;
7843;SDS011;3967;48.702;9.326;2024-03-17T01:12:03;6.30;;;5.70;;
7843;SDS011;3967;48.702;9.326;2024-03-17T01:14:29;7.50;;;5.80;;
7843;SDS011;3967;48.702;9.326;2024-03-17T01:16:56;5.53;;;5.00;;
7843;SDS011;3967;48.702;9.326;2024-03-17T01:19:22;5.80;;;5.20;;
7843;SDS011;3967;48.702;9.326;2024-03-17T01:21:49;6.37;;;5.00;;
7843;SDS011;3967;48.702;9.326;2024-03-17T01:24:16;5.13;;;4.63;;
7843;SDS011;3967;48.702;9.326;2024-03-17T01:26:43;5.40;;;4.80;;
7843;SDS011;3967;48.702;9.326;2024-03-17T01:29:08;7.30;;;5.17;;
7843;SDS011;3967;48.702;9.326;2024-03-17T01:31:35;5.73;;;4.67;;
7843;SDS011;3967;48.702;9.326;2024-03-17T01:34:00;6.40;;;5.17;;
7843;SDS011;3967;48.702;9.326;2024-03-17T01:36:26;7.53;;;5.10;;
7843;SDS011;3967;48.702;9.326;2024-03-17T01:38:52;5.33;;;4.83;;
7843;SDS011;3967;48.702;9.326;2024-03-17T01:41:18;5.73;;;5.23;;
7843;SDS011;3967;48.702;9.326;2024-03-17T01:43:44;7.50;;;5.83;;
7843;SDS011;3967;48.702;9.326;2024-03-17T01:46:11;5.87;;;5.27;;
7843;SDS011;3967;48.702;9.326;2024-03-17T01:48:39;5.70;;;4.80;;
7843;SDS011;3967;48.702;9.326;2024-03-17T01:51:05;6.80;;;5.73;;
7843;SDS011;3967;48.702;9.326;2024-03-17T01:53:34;6.33;;;4.63;;
7843;SDS011;3967;48.702;9.326;2024-03-17T01:56:00;5.80;;;5.20;;
7843;SDS011;3967;48.702;9.326;2024-03-17T01:58:27;7.97;;;5.43;;
7843;SDS011;3967;48.702;9.326;2024-03-17T02:00:55;6.73;;;5.70;;
7843;SDS011;3967;48.702;9.326;2024-03-17T02:03:21;6.53;;;5.23;;
7843;SDS011;3967;48.702;9.326;2024-03-17T02:05:47;6.87;;;5.97;;
7843;SDS011;3967;48.702;9.326;2024-03-17T02:08:13;8.87;;;5.73;;
7843;SDS011;3967;48.702;9.326;2024-03-17T02:10:39;7.13;;;5.70;;
7843;SDS011;3967;48.702;9.326;2024-03-17T02:13:05;6.17;;;5.57;;
7843;SDS011;3967;48.702;9.326;2024-03-17T02:15:32;7.23;;;5.70;;
7843;SDS011;3967;48.702;9.326;2024-03-17T02:17:58;7.00;;;5.90;;
7843;SDS011;3967;48.702;9.326;2024-03-17T02:20:24;5.93;;;5.33;;
7843;SDS011;3967;48.702;9.326;2024-03-17T02:23:10;7.87;;;6.27;;
7843;SDS011;3967;48.702;9.326;2024-03-17T02:25:37;9.10;;;6.03;;
7843;SDS011;3967;48.702;9.326;2024-03-17T02:28:03;8.30;;;6.47;;
7843;SDS011;3967;48.702;9.326;2024-03-17T02:30:30;6.07;;;5.30;;
7843;SDS011;3967;48.702;9.326;2024-03-17T02:32:56;7.23;;;6.47;;
7843;SDS011;3967;48.702;9.326;2024-03-17T02:35:22;9.90;;;7.17;;
7843;SDS011;3967;48.702;9.326;2024-03-17T02:37:49;9.77;;;8.17;;
7843;SDS011;3967;48.702;9.326;2024-03-17T02:40:14;10.30;;;7.40;;
7843;SDS011;3967;48.702;9.326;2024-03-17T02:42:41;11.53;;;7.63;;
7843;SDS011;3967;48.702;9.326;2024-03-17T02:45:10;9.30;;;7.63;;
7843;SDS011;3967;48.702;9.326;2024-03-17T02:47:37;10.63;;;7.33;;
7843;SDS011;3967;48.702;9.326;2024-03-17T02:50:03;7.97;;;6.93;;
7843;SDS011;3967;48.702;9.326;2024-03-17T02:52:29;11.37;;;7.67;;
7843;SDS011;3967;48.702;9.326;2024-03-17T02:54:55;9.43;;;7.40;;
7843;SDS011;3967;48.702;9.326;2024-03-17T02:57:22;7.87;;;7.07;;
7843;SDS011;3967;48.702;9.326;2024-03-17T02:59:55;10.53;;;7.10;;
7843;SDS011;3967;48.702;9.326;2024-03-17T03:02:22;7.03;;;6.33;;
7843;SDS011;3967;48.702;9.326;2024-03-17T03:04:48;10.27;;;7.27;;
7843;SDS011;3967;48.702;9.326;2024-03-17T03:07:13;8.97;;;6.33;;
7843;SDS011;3967;48.702;9.326;2024-03-17T03:09:39;9.67;;;7.23;;
7843;SDS011;3967;48.702;9.326;2024-03-17T03:12:05;7.10;;;6.03;;
7843;SDS011;3967;48.702;9.326;2024-03-17T03:14:33;7.07;;;5.83;;
7843;SDS011;3967;48.702;9.326;2024-03-17T03:16:59;8.10;;;6.47;;
7843;SDS011;3967;48.702;9.326;2024-03-17T03:19:25;8.20;;;7.27;;
7843;SDS011;3967;48.702;9.326;2024-03-17T03:21:52;10.53;;;7.27;;
7843;SDS011;3967;48.702;9.326;2024-03-17T03:24:18;9.20;;;8.20;;
7843;SDS011;3967;48.702;9.326;2024-03-17T03:26:44;10.10;;;7.30;;
7843;SDS011;3967;48.702;9.326;2024-03-17T03:29:10;8.80;;;7.20;;
7843;SDS011;3967;48.702;9.326;2024-03-17T03:31:36;9.20;;;8.03;;
7843;SDS011;3967;48.702;9.326;2024-03-17T03:34:04;9.90;;;7.53;;
7843;SDS011;3967;48.702;9.326;2024-03-17T03:36:32;9.80;;;7.20;;
7843;SDS011;3967;48.702;9.326;2024-03-17T03:38:59;9.20;;;6.90;;
7843;SDS011;3967;48.702;9.326;2024-03-17T03:41:25;9.40;;;7.97;;
7843;SDS011;3967;48.702;9.326;2024-03-17T03:43:51;8.20;;;7.20;;
7843;SDS011;3967;48.702;9.326;2024-03-17T03:46:17;11.60;;;7.33;;
7843;SDS011;3967;48.702;9.326;2024-03-17T03:48:43;11.23;;;8.03;;
7843;SDS011;3967;48.702;9.326;2024-03-17T03:51:09;11.00;;;8.77;;
7843;SDS011;3967;48.702;9.326;2024-03-17T03:53:35;9.80;;;7.17;;
7843;SDS011;3967;48.702;9.326;2024-03-17T03:56:03;8.97;;;7.73;;
7843;SDS011;3967;48.702;9.326;2024-03-17T03:58:34;12.70;;;8.53;;
7843;SDS011;3967;48.702;9.326;2024-03-17T04:01:05;10.37;;;8.13;;
7843;SDS011;3967;48.702;9.326;2024-03-17T04:03:32;9.07;;;7.80;;
7843;SDS011;3967;48.702;9.326;2024-03-17T04:06:05;9.40;;;7.50;;
7843;SDS011;3967;48.702;9.326;2024-03-17T04:08:36;9.53;;;7.27;;
7843;SDS011;3967;48.702;9.326;2024-03-17T04:11:03;11.17;;;7.40;;
7843;SDS011;3967;48.702;9.326;2024-03-17T04:13:29;8.50;;;6.70;;
7843;SDS011;3967;48.702;9.326;2024-03-17T04:16:00;10.97;;;8.23;;
7843;SDS011;3967;48.702;9.326;2024-03-17T04:18:28;8.63;;;7.47;;
7843;SDS011;3967;48.702;9.326;2024-03-17T04:21:00;10.43;;;7.10;;
7843;SDS011;3967;48.702;9.326;2024-03-17T04:23:29;9.70;;;7.53;;
7843;SDS011;3967;48.702;9.326;2024-03-17T04:25:57;9.70;;;7.83;;
7843;SDS011;3967;48.702;9.326;2024-03-17T04:28:24;10.90;;;7.23;;
7843;SDS011;3967;48.702;9.326;2024-03-17T04:30:50;11.90;;;7.70;;
7843;SDS011;3967;48.702;9.326;2024-03-17T04:33:15;9.03;;;7.47;;
7843;SDS011;3967;48.702;9.326;2024-03-17T04:35:44;8.00;;;7.20;;
7843;SDS011;3967;48.702;9.326;2024-03-17T04:38:10;9.73;;;8.00;;
7843;SDS011;3967;48.702;9.326;2024-03-17T04:40:40;8.70;;;7.63;;
7843;SDS011;3967;48.702;9.326;2024-03-17T04:43:06;10.30;;;8.50;;
7843;SDS011;3967;48.702;9.326;2024-03-17T04:45:33;11.87;;;8.30;;
7843;SDS011;3967;48.702;9.326;2024-03-17T04:47:58;10.40;;;8.50;;
7843;SDS011;3967;48.702;9.326;2024-03-17T04:50:24;9.53;;;7.57;;
7843;SDS011;3967;48.702;9.326;2024-03-17T04:52:51;7.70;;;6.73;;
7843;SDS011;3967;48.702;9.326;2024-03-17T04:55:17;9.67;;;7.57;;
7843;SDS011;3967;48.702;9.326;2024-03-17T04:57:47;10.27;;;7.70;;
7843;SDS011;3967;48.702;9.326;2024-03-17T05:00:13;10.17;;;7.97;;
7843;SDS011;3967;48.702;9.326;2024-03-17T05:02:39;8.03;;;6.87;;
7843;SDS011;3967;48.702;9.326;2024-03-17T05:05:05;9.43;;;7.73;;
7843;SDS011;3967;48.702;9.326;2024-03-17T05:07:33;10.60;;;7.90;;
7843;SDS011;3967;48.702;9.326;2024-03-17T05:10:00;10.20;;;8.17;;
7843;SDS011;3967;48.702;9.326;2024-03-17T05:12:26;10.70;;;7.87;;
7843;SDS011;3967;48.702;9.326;2024-03-17T05:14:52;10.20;;;8.00;;
7843;SDS011;3967;48.702;9.326;2024-03-17T05:17:17;10.10;;;8.07;;
7843;SDS011;3967;48.702;9.326;2024-03-17T05:19:43;12.67;;;8.80;;
7843;SDS011;3967;48.702;9.326;2024-03-17T05:22:09;9.63;;;7.20;;
7843;SDS011;3967;48.702;9.326;2024-03-17T05:24:35;8.30;;;6.93;;
7843;SDS011;3967;48.702;9.326;2024-03-17T05:27:01;9.87;;;8.13;;
7843;SDS011;3967;48.702;9.326;2024-03-17T05:29:27;8.47;;;6.60;;
7843;SDS011;3967;48.702;9.326;2024-03-17T05:31:53;9.10;;;7.47;;
7843;SDS011;3967;48.702;9.326;2024-03-17T05:34:19;9.00;;;6.27;;
7843;SDS011;3967;48.702;9.326;2024-03-17T05:36:45;7.53;;;6.20;;
7843;SDS011;3967;48.702;9.326;2024-03-17T05:39:12;7.17;;;6.47;;
7843;SDS011;3967;48.702;9.326;2024-03-17T05:41:39;11.37;;;8.27;;
7843;SDS011;3967;48.702;9.326;2024-03-17T05:44:06;8.93;;;7.00;;
7843;SDS011;3967;48.702;9.326;2024-03-17T05:46:32;6.13;;;5.53;;
7843;SDS011;3967;48.702;9.326;2024-03-17T05:48:58;7.97;;;6.67;;
7843;SDS011;3967;48.702;9.326;2024-03-17T05:51:23;10.70;;;7.97;;
7843;SDS011;3967;48.702;9.326;2024-03-17T05:53:52;8.70;;;7.07;;
7843;SDS011;3967;48.702;9.326;2024-03-17T05:56:18;10.27;;;7.33;;
7843;SDS011;3967;48.702;9.326;2024-03-17T05:58:44;11.30;;;7.37;;
7843;SDS011;3967;48.702;9.326;2024-03-17T06:01:10;14.00;;;8.50;;
7843;SDS011;3967;48.702;9.326;2024-03-17T06:03:36;10.10;;;8.03;;
7843;SDS011;3967;48.702;9.326;2024-03-17T06:06:03;9.13;;;7.17;;
7843;SDS011;3967;48.702;9.326;2024-03-17T06:08:32;10.87;;;7.40;;
7843;SDS011;3967;48.702;9.326;2024-03-17T06:10:58;10.70;;;7.30;;
7843;SDS011;3967;48.702;9.326;2024-03-17T06:13:26;11.07;;;7.57;;
7843;SDS011;3967;48.702;9.326;2024-03-17T06:15:53;9.07;;;7.10;;
7843;SDS011;3967;48.702;9.326;2024-03-17T06:18:19;9.03;;;7.47;;
7843;SDS011;3967;48.702;9.326;2024-03-17T06:20:45;11.13;;;7.13;;
7843;SDS011;3967;48.702;9.326;2024-03-17T06:23:13;10.87;;;7.27;;
7843;SDS011;3967;48.702;9.326;2024-03-17T06:25:40;8.70;;;7.13;;
7843;SDS011;3967;48.702;9.326;2024-03-17T06:28:10;7.97;;;6.57;;
7843;SDS011;3967;48.702;9.326;2024-03-17T06:31:00;11.60;;;7.47;;
7843;SDS011;3967;48.702;9.326;2024-03-17T06:33:25;11.37;;;6.53;;
7843;SDS011;3967;48.702;9.326;2024-03-17T06:35:53;8.80;;;7.03;;
7843;SDS011;3967;48.702;9.326;2024-03-17T06:38:19;9.73;;;7.20;;
7843;SDS011;3967;48.702;9.326;2024-03-17T06:40:48;8.00;;;6.87;;
7843;SDS011;3967;48.702;9.326;2024-03-17T06:43:18;10.00;;;7.23;;
7843;SDS011;3967;48.702;9.326;2024-03-17T06:45:57;7.70;;;6.70;;
7843;SDS011;3967;48.702;9.326;2024-03-17T06:48:24;7.57;;;6.23;;
7843;SDS011;3967;48.702;9.326;2024-03-17T06:50:51;10.23;;;7.20;;
7843;SDS011;3967;48.702;9.326;2024-03-17T06:53:19;6.80;;;6.07;;
7843;SDS011;3967;48.702;9.326;2024-03-17T06:55:52;11.70;;;7.50;;
7843;SDS011;3967;48.702;9.326;2024-03-17T06:58:19;8.80;;;6.63;;
7843;SDS011;3967;48.702;9.326;2024-03-17T07:00:54;9.40;;;6.37;;
7843;SDS011;3967;48.702;9.326;2024-03-17T07:03:28;13.77;;;7.13;;
7843;SDS011;3967;48.702;9.326;2024-03-17T07:05:55;9.13;;;7.20;;
7843;SDS011;3967;48.702;9.326;2024-03-17T07:08:23;8.77;;;6.37;;
7843;SDS011;3967;48.702;9.326;2024-03-17T07:10:56;7.63;;;6.83;;
7843;SDS011;3967;48.702;9.326;2024-03-17T07:13:38;8.07;;;6.70;;
7843;SDS011;3967;48.702;9.326;2024-03-17T07:16:04;9.27;;;6.50;;
7843;SDS011;3967;48.702;9.326;2024-03-17T07:18:31;7.77;;;6.10;;
7843;SDS011;3967;48.702;9.326;2024-03-17T07:20:58;7.67;;;6.03;;
7843;SDS011;3967;48.702;9.326;2024-03-17T07:23:25;10.30;;;6.60;;
7843;SDS011;3967;48.702;9.326;2024-03-17T07:25:52;10.27;;;6.73;;
7843;SDS011;3967;48.702;9.326;2024-03-17T07:28:19;7.67;;;6.20;;
7843;SDS011;3967;48.702;9.326;2024-03-17T07:30:51;7.83;;;6.30;;
7843;SDS011;3967;48.702;9.326;2024-03-17T07:33:19;9.63;;;6.10;;
7843;SDS011;3967;48.702;9.326;2024-03-17T07:35:49;9.23;;;7.20;;
7843;SDS011;3967;48.702;9.326;2024-03-17T07:38:16;7.17;;;6.40;;
7843;SDS011;3967;48.702;9.326;2024-03-17T07:40:42;8.17;;;6.43;;
7843;SDS011;3967;48.702;9.326;2024-03-17T07:43:08;7.37;;;6.03;;
7843;SDS011;3967;48.702;9.326;2024-03-17T07:45:34;7.13;;;6.07;;
7843;SDS011;3967;48.702;9.326;2024-03-17T07:47:59;6.37;;;5.77;;
7843;SDS011;3967;48.702;9.326;2024-03-17T07:50:25;8.43;;;6.77;;
7843;SDS011;3967;48.702;9.326;2024-03-17T07:52:52;7.23;;;6.13;;
7843;SDS011;3967;48.702;9.326;2024-03-17T07:55:18;6.90;;;5.90;;
7843;SDS011;3967;48.702;9.326;2024-03-17T07:57:43;7.10;;;5.87;;
7843;SDS011;3967;48.702;9.326;2024-03-17T08:00:10;9.40;;;5.80;;
7843;SDS011;3967;48.702;9.326;2024-03-17T08:02:47;7.13;;;5.80;;
7843;SDS011;3967;48.702;9.326;2024-03-17T08:05:13;6.20;;;5.60;;
7843;SDS011;3967;48.702;9.326;2024-03-17T08:07:39;7.87;;;5.70;;
7843;SDS011;3967;48.702;9.326;2024-03-17T08:10:07;6.50;;;5.80;;
7843;SDS011;3967;48.702;9.326;2024-03-17T08:12:33;6.10;;;5.50;;
7843;SDS011;3967;48.702;9.326;2024-03-17T08:14:59;5.77;;;5.00;;
7843;SDS011;3967;48.702;9.326;2024-03-17T08:17:25;8.30;;;5.93;;
7843;SDS011;3967;48.702;9.326;2024-03-17T08:19:51;8.23;;;5.13;;
7843;SDS011;3967;48.702;9.326;2024-03-17T08:22:17;8.67;;;5.70;;
7843;SDS011;3967;48.702;9.326;2024-03-17T08:24:43;6.83;;;6.00;;
7843;SDS011;3967;48.702;9.326;2024-03-17T08:27:09;9.17;;;5.10;;
7843;SDS011;3967;48.702;9.326;2024-03-17T08:29:35;6.13;;;5.53;;
7843;SDS011;3967;48.702;9.326;2024-03-17T08:32:01;8.23;;;5.73;;
7843;SDS011;3967;48.702;9.326;2024-03-17T08:34:26;6.17;;;5.17;;
7843;SDS011;3967;48.702;9.326;2024-03-17T08:36:52;6.20;;;4.80;;
7843;SDS011;3967;48.702;9.326;2024-03-17T08:39:18;5.60;;;5.10;;
7843;SDS011;3967;48.702;9.326;2024-03-17T08:41:44;5.53;;;4.93;;
7843;SDS011;3967;48.702;9.326;2024-03-17T08:44:10;5.40;;;4.80;;
7843;SDS011;3967;48.702;9.326;2024-03-17T08:46:36;6.97;;;4.83;;
7843;SDS011;3967;48.702;9.326;2024-03-17T08:49:02;7.83;;;4.80;;
7843;SDS011;3967;48.702;9.326;2024-03-17T08:51:28;5.80;;;4.80;;
7843;SDS011;3967;48.702;9.326;2024-03-17T08:53:54;4.77;;;4.23;;
7843;SDS011;3967;48.702;9.326;2024-03-17T08:56:20;5.33;;;4.83;;
7843;SDS011;3967;48.702;9.326;2024-03-17T08:58:46;5.23;;;4.70;;
7843;SDS011;3967;48.702;9.326;2024-03-17T09:01:13;4.90;;;4.50;;
7843;SDS011;3967;48.702;9.326;2024-03-17T09:03:41;5.53;;;4.93;;
7843;SDS011;3967;48.702;9.326;2024-03-17T09:06:14;4.40;;;3.77;;
7843;SDS011;3967;48.702;9.326;2024-03-17T09:08:41;4.17;;;3.77;;
7843;SDS011;3967;48.702;9.326;2024-03-17T09:11:13;3.87;;;3.30;;
7843;SDS011;3967;48.702;9.326;2024-03-17T09:13:40;4.67;;;3.23;;
7843;SDS011;3967;48.702;9.326;2024-03-17T09:16:05;3.60;;;3.30;;
7843;SDS011;3967;48.702;9.326;2024-03-17T09:18:32;4.07;;;3.30;;
7843;SDS011;3967;48.702;9.326;2024-03-17T09:21:03;4.07;;;3.67;;
7843;SDS011;3967;48.702;9.326;2024-03-17T09:23:32;3.13;;;2.93;;
7843;SDS011;3967;48.702;9.326;2024-03-17T09:28:27;3.37;;;3.07;;
7843;SDS011;3967;48.702;9.326;2024-03-17T09:30:54;3.83;;;3.03;;
7843;SDS011;3967;48.702;9.326;2024-03-17T09:33:24;3.70;;;3.40;;
7843;SDS011;3967;48.702;9.326;2024-03-17T09:36:02;4.73;;;3.73;;
7843;SDS011;3967;48.702;9.326;2024-03-17T09:38:29;3.63;;;3.33;;
7843;SDS011;3967;48.702;9.326;2024-03-17T09:40:55;6.30;;;3.30;;
7843;SDS011;3967;48.702;9.326;2024-03-17T09:43:30;3.73;;;3.00;;
7843;SDS011;3967;48.702;9.326;2024-03-17T09:45:58;2.50;;;2.30;;
7843;SDS011;3967;48.702;9.326;2024-03-17T09:48:27;4.47;;;2.77;;
7843;SDS011;3967;48.702;9.326;2024-03-17T09:50:55;2.30;;;2.03;;
7843;SDS011;3967;48.702;9.326;2024-03-17T09:53:34;2.40;;;1.80;;
7843;SDS011;3967;48.702;9.326;2024-03-17T09:56:01;2.53;;;2.10;;
7843;SDS011;3967;48.702;9.326;2024-03-17T09:58:29;2.47;;;2.17;;
7843;SDS011;3967;48.702;9.326;2024-03-17T10:00:55;2.33;;;2.10;;
7843;SDS011;3967;48.702;9.326;2024-03-17T10:06:24;4.10;;;2.30;;
7843;SDS011;3967;48.702;9.326;2024-03-17T10:08:54;4.47;;;2.20;;
7843;SDS011;3967;48.702;9.326;2024-03-17T10:11:32;3.50;;;2.30;;
7843;SDS011;3967;48.702;9.326;2024-03-17T10:16:33;3.00;;;2.30;;
7843;SDS011;3967;48.702;9.326;2024-03-17T10:21:40;3.10;;;2.33;;
7843;SDS011;3967;48.702;9.326;2024-03-17T10:24:08;2.90;;;2.20;;
7843;SDS011;3967;48.702;9.326;2024-03-17T10:26:51;2.60;;;2.17;;
7843;SDS011;3967;48.702;9.326;2024-03-17T10:29:28;2.20;;;2.00;;
7843;SDS011;3967;48.702;9.326;2024-03-17T10:34:41;3.07;;;2.03;;
7843;SDS011;3967;48.702;9.326;2024-03-17T10:39:37;3.10;;;2.03;;
7843;SDS011;3967;48.702;9.326;2024-03-17T10:42:05;2.20;;;1.73;;
7843;SDS011;3967;48.702;9.326;2024-03-17T10:44:32;1.80;;;1.70;;
7843;SDS011;3967;48.702;9.326;2024-03-17T10:47:02;2.93;;;1.60;;
7843;SDS011;3967;48.702;9.326;2024-03-17T10:49:35;5.03;;;1.77;;
7843;SDS011;3967;48.702;9.326;2024-03-17T10:52:03;2.10;;;1.67;;
7843;SDS011;3967;48.702;9.326;2024-03-17T10:54:34;3.20;;;2.03;;
7843;SDS011;3967;48.702;9.326;2024-03-17T11:00:05;3.90;;;1.87;;
7843;SDS011;3967;48.702;9.326;2024-03-17T11:02:34;2.27;;;1.40;;
7843;SDS011;3967;48.702;9.326;2024-03-17T11:05:02;1.83;;;1.50;;
7843;SDS011;3967;48.702;9.326;2024-03-17T11:07:37;1.50;;;1.40;;
7843;SDS011;3967;48.702;9.326;2024-03-17T11:10:08;1.80;;;1.53;;
7843;SDS011;3967;48.702;9.326;2024-03-17T11:17:54;2.30;;;1.30;;
7843;SDS011;3967;48.702;9.326;2024-03-17T11:20:26;2.53;;;1.40;;
7843;SDS011;3967;48.702;9.326;2024-03-17T11:22:57;2.40;;;1.60;;
7843;SDS011;3967;48.702;9.326;2024-03-17T11:41:43;4.37;;;1.90;;
7843;SDS011;3967;48.702;9.326;2024-03-17T11:51:59;2.87;;;1.60;;
7843;SDS011;3967;48.702;9.326;2024-03-17T11:54:27;3.40;;;1.60;;
7843;SDS011;3967;48.702;9.326;2024-03-17T11:56:55;3.10;;;1.60;;
7843;SDS011;3967;48.702;9.326;2024-03-17T11:59:31;1.47;;;1.30;;
7843;SDS011;3967;48.702;9.326;2024-03-17T12:01:58;2.03;;;1.50;;
7843;SDS011;3967;48.702;9.326;2024-03-17T12:04:24;1.80;;;1.57;;
7843;SDS011;3967;48.702;9.326;2024-03-17T12:06:51;1.90;;;1.43;;
7843;SDS011;3967;48.702;9.326;2024-03-17T12:09:21;3.10;;;1.70;;
7843;SDS011;3967;48.702;9.326;2024-03-17T12:11:48;2.33;;;1.60;;
7843;SDS011;3967;48.702;9.326;2024-03-17T12:14:24;3.40;;;1.70;;
7843;SDS011;3967;48.702;9.326;2024-03-17T12:17:03;2.73;;;1.63;;
7843;SDS011;3967;48.702;9.326;2024-03-17T12:19:30;1.60;;;1.43;;
7843;SDS011;3967;48.702;9.326;2024-03-17T12:21:56;3.63;;;1.57;;
7843;SDS011;3967;48.702;9.326;2024-03-17T12:24:25;1.73;;;1.53;;
7843;SDS011;3967;48.702;9.326;2024-03-17T12:26:53;3.60;;;1.80;;
7843;SDS011;3967;48.702;9.326;2024-03-17T12:31:58;3.20;;;1.87;;
7843;SDS011;3967;48.702;9.326;2024-03-17T12:34:29;2.90;;;1.70;;
7843;SDS011;3967;48.702;9.326;2024-03-17T12:36:57;1.67;;;1.57;;
7843;SDS011;3967;48.702;9.326;2024-03-17T12:39:25;2.57;;;1.40;;
7843;SDS011;3967;48.702;9.326;2024-03-17T12:44:38;2.60;;;1.50;;
7843;SDS011;3967;48.702;9.326;2024-03-17T12:47:21;1.50;;;1.30;;
7843;SDS011;3967;48.702;9.326;2024-03-17T12:49:50;2.70;;;1.27;;
7843;SDS011;3967;48.702;9.326;2024-03-17T12:55:04;1.40;;;1.10;;
7843;SDS011;3967;48.702;9.326;2024-03-17T12:57:51;2.40;;;1.10;;
7843;SDS011;3967;48.702;9.326;2024-03-17T13:00:37;2.70;;;1.07;;
7843;SDS011;3967;48.702;9.326;2024-03-17T13:03:03;3.70;;;1.30;;
7843;SDS011;3967;48.702;9.326;2024-03-17T13:05:33;3.20;;;1.60;;
7843;SDS011;3967;48.702;9.326;2024-03-17T13:08:00;2.50;;;1.03;;
7843;SDS011;3967;48.702;9.326;2024-03-17T13:10:27;1.53;;;1.37;;
7843;SDS011;3967;48.702;9.326;2024-03-17T13:13:07;1.80;;;1.63;;
7843;SDS011;3967;48.702;9.326;2024-03-17T13:15:34;2.23;;;1.20;;
7843;SDS011;3967;48.702;9.326;2024-03-17T13:18:01;1.13;;;0.80;;
7843;SDS011;3967;48.702;9.326;2024-03-17T13:20:29;2.43;;;1.23;;
7843;SDS011;3967;48.702;9.326;2024-03-17T13:22:56;2.40;;;1.33;;
7843;SDS011;3967;48.702;9.326;2024-03-17T13:25:27;1.60;;;1.07;;
7843;SDS011;3967;48.702;9.326;2024-03-17T13:27:58;2.47;;;1.13;;
7843;SDS011;3967;48.702;9.326;2024-03-17T13:30:24;1.80;;;1.20;;
7843;SDS011;3967;48.702;9.326;2024-03-17T13:32:52;2.17;;;1.23;;
7843;SDS011;3967;48.702;9.326;2024-03-17T13:35:27;3.60;;;1.10;;
7843;SDS011;3967;48.702;9.326;2024-03-17T13:37:54;3.27;;;1.43;;
7843;SDS011;3967;48.702;9.326;2024-03-17T13:40:25;2.23;;;1.20;;
7843;SDS011;3967;48.702;9.326;2024-03-17T13:42:52;1.17;;;0.90;;
7843;SDS011;3967;48.702;9.326;2024-03-17T13:45:19;1.60;;;0.50;;
7843;SDS011;3967;48.702;9.326;2024-03-17T13:47:47;2.70;;;0.80;;
7843;SDS011;3967;48.702;9.326;2024-03-17T13:50:16;3.27;;;0.77;;
7843;SDS011;3967;48.702;9.326;2024-03-17T13:52:42;1.60;;;0.83;;
7843;SDS011;3967;48.702;9.326;2024-03-17T13:55:12;1.33;;;1.23;;
7843;SDS011;3967;48.702;9.326;2024-03-17T13:57:41;1.87;;;0.70;;
7843;SDS011;3967;48.702;9.326;2024-03-17T14:00:09;0.60;;;0.60;;
7843;SDS011;3967;48.702;9.326;2024-03-17T14:02:35;0.83;;;0.70;;
7843;SDS011;3967;48.702;9.326;2024-03-17T14:05:01;1.73;;;0.87;;
7843;SDS011;3967;48.702;9.326;2024-03-17T14:07:27;1.90;;;0.80;;
7843;SDS011;3967;48.702;9.326;2024-03-17T14:09:53;1.13;;;0.83;;
7843;SDS011;3967;48.702;9.326;2024-03-17T14:12:19;0.63;;;0.60;;
7843;SDS011;3967;48.702;9.326;2024-03-17T14:14:45;2.80;;;1.47;;
7843;SDS011;3967;48.702;9.326;2024-03-17T14:17:11;1.77;;;0.80;;
7843;SDS011;3967;48.702;9.326;2024-03-17T14:19:37;2.00;;;0.90;;
7843;SDS011;3967;48.702;9.326;2024-03-17T14:22:03;1.63;;;1.13;;
7843;SDS011;3967;48.702;9.326;2024-03-17T14:24:29;1.23;;;0.70;;
7843;SDS011;3967;48.702;9.326;2024-03-17T14:26:55;1.90;;;0.80;;
7843;SDS011;3967;48.702;9.326;2024-03-17T14:29:21;1.17;;;0.60;;
7843;SDS011;3967;48.702;9.326;2024-03-17T14:31:47;0.87;;;0.73;;
7843;SDS011;3967;48.702;9.326;2024-03-17T14:34:13;2.23;;;0.60;;
7843;SDS011;3967;48.702;9.326;2024-03-17T14:36:39;2.47;;;0.70;;
7843;SDS011;3967;48.702;9.326;2024-03-17T14:39:04;2.87;;;0.87;;
7843;SDS011;3967;48.702;9.326;2024-03-17T14:41:30;1.33;;;0.50;;
7843;SDS011;3967;48.702;9.326;2024-03-17T14:43:56;1.27;;;0.60;;
7843;SDS011;3967;48.702;9.326;2024-03-17T14:46:23;2.03;;;0.57;;
7843;SDS011;3967;48.702;9.326;2024-03-17T14:48:49;1.80;;;0.63;;
7843;SDS011;3967;48.702;9.326;2024-03-17T14:51:17;3.13;;;0.87;;
7843;SDS011;3967;48.702;9.326;2024-03-17T14:53:43;2.33;;;0.80;;
7843;SDS011;3967;48.702;9.326;2024-03-17T14:56:14;1.67;;;0.90;;
7843;SDS011;3967;48.702;9.326;2024-03-17T14:58:41;1.93;;;0.80;;
7843;SDS011;3967;48.702;9.326;2024-03-17T15:01:08;1.63;;;0.70;;
7843;SDS011;3967;48.702;9.326;2024-03-17T15:03:35;1.37;;;0.83;;
7843;SDS011;3967;48.702;9.326;2024-03-17T15:06:01;1.37;;;0.83;;
7843;SDS011;3967;48.702;9.326;2024-03-17T15:08:30;1.63;;;0.97;;
7843;SDS011;3967;48.702;9.326;2024-03-17T15:10:56;1.27;;;0.83;;
7843;SDS011;3967;48.702;9.326;2024-03-17T15:13:22;1.47;;;1.13;;
7843;SDS011;3967;48.702;9.326;2024-03-17T15:15:49;1.27;;;0.70;;
7843;SDS011;3967;48.702;9.326;2024-03-17T15:18:15;0.80;;;0.80;;
7843;SDS011;3967;48.702;9.326;2024-03-17T15:20:43;1.80;;;1.00;;
7843;SDS011;3967;48.702;9.326;2024-03-17T15:23:17;1.97;;;0.90;;
7843;SDS011;3967;48.702;9.326;2024-03-17T15:25:42;2.63;;;0.83;;
7843;SDS011;3967;48.702;9.326;2024-03-17T15:28:09;3.27;;;1.07;;
7843;SDS011;3967;48.702;9.326;2024-03-17T15:30:37;1.27;;;0.70;;
7843;SDS011;3967;48.702;9.326;2024-03-17T15:33:03;2.03;;;0.80;;
7843;SDS011;3967;48.702;9.326;2024-03-17T15:35:29;1.63;;;0.80;;
7843;SDS011;3967;48.702;9.326;2024-03-17T15:37:56;2.83;;;0.80;;
7843;SDS011;3967;48.702;9.326;2024-03-17T15:40:22;2.30;;;0.90;;
7843;SDS011;3967;48.702;9.326;2024-03-17T15:42:49;3.37;;;1.43;;
7843;SDS011;3967;48.702;9.326;2024-03-17T15:45:16;2.13;;;0.63;;
7843;SDS011;3967;48.702;9.326;2024-03-17T15:47:45;1.10;;;0.90;;
7843;SDS011;3967;48.702;9.326;2024-03-17T15:50:11;1.63;;;0.87;;
7843;SDS011;3967;48.702;9.326;2024-03-17T15:52:39;1.43;;;0.70;;
7843;SDS011;3967;48.702;9.326;2024-03-17T15:55:07;1.43;;;0.87;;
7843;SDS011;3967;48.702;9.326;2024-03-17T15:57:34;2.37;;;0.90;;
7843;SDS011;3967;48.702;9.326;2024-03-17T16:00:00;1.00;;;0.80;;
7843;SDS011;3967;48.702;9.326;2024-03-17T16:02:26;1.57;;;0.93;;
7843;SDS011;3967;48.702;9.326;2024-03-17T16:04:52;3.53;;;1.17;;
7843;SDS011;3967;48.702;9.326;2024-03-17T16:07:20;1.70;;;1.13;;
7843;SDS011;3967;48.702;9.326;2024-03-17T16:09:47;1.13;;;0.90;;
7843;SDS011;3967;48.702;9.326;2024-03-17T16:12:13;3.17;;;0.90;;